Decoded Metar for UKDR (KRIVYY RIH in UKRAINE) (IATA:N/A) | Meteo·Mobile Aviation Weather
aviador You're here:

UKDR Decoded Metar

KRIVYY RIH in UKRAINE
Report Time2019-01-17 22:30:00
UTC Time2019-01-17 22:57:41
Flight Rules mvfr MVFR
Wind180° at 10 kt
W.Decomp.*RWY 18: 10.0 kt HW 0.7 kt LCW
W.Rank180° ranks 32
Current wind is above 180° avg. (7.5)
Visibility9999 m
Phenomena:N/A
Clouds:Overcast 021 Hf
Expected CloudBase > 800 ft AGL from Temp-Dew spread
Ceiling2,100 ft
Temp-1°C (ISA -15)
Dew Point-3°C (86% RH)
AAT-7.0°C
QNH1014 hPa
Density Alt-1,417 ft
Elevation407 ft
Report Wrong Elevation
Raw Report
UKDR 172230Z 18005MPS 140V240 9999 OVC021 M01/M03 Q1014 R18/920540
NOSIG=

Extra information for UKDR:More info

Metar Taf Metar & Taf Last 4 Metars F.Rules Stats Wind Profile Meteogram Temp Stats Airport Information Weather charts Add Link Nearby VenuesMetar ALERT Operation Metar Decoded Social comments